sensor_id;sensor_type;location;lat;lon;timestamp;temperature;humidity
78490;DHT22;67776;52.012;4.736;2023-12-04T00:02:20;1.05;97.10
78490;DHT22;67776;52.012;4.736;2023-12-04T00:04:46;1.04;97.12
78490;DHT22;67776;52.012;4.736;2023-12-04T00:07:11;1.04;96.92
78490;DHT22;67776;52.012;4.736;2023-12-04T00:09:36;1.04;97.46
78490;DHT22;67776;52.012;4.736;2023-12-04T00:12:02;1.03;97.32
78490;DHT22;67776;52.012;4.736;2023-12-04T00:14:27;1.00;97.69
78490;DHT22;67776;52.012;4.736;2023-12-04T00:16:52;1.00;98.02
78490;DHT22;67776;52.012;4.736;2023-12-04T00:19:18;1.01;97.61
78490;DHT22;67776;52.012;4.736;2023-12-04T00:21:43;0.97;98.08
78490;DHT22;67776;52.012;4.736;2023-12-04T00:24:09;0.98;98.08
78490;DHT22;67776;52.012;4.736;2023-12-04T00:26:34;0.98;98.12
78490;DHT22;67776;52.012;4.736;2023-12-04T00:28:59;0.98;98.01
78490;DHT22;67776;52.012;4.736;2023-12-04T00:31:24;0.98;97.72
78490;DHT22;67776;52.012;4.736;2023-12-04T00:33:50;0.98;98.18
78490;DHT22;67776;52.012;4.736;2023-12-04T00:36:15;1.03;97.65
78490;DHT22;67776;52.012;4.736;2023-12-04T00:38:40;1.03;97.60
78490;DHT22;67776;52.012;4.736;2023-12-04T00:41:06;1.03;97.57
78490;DHT22;67776;52.012;4.736;2023-12-04T00:43:31;1.01;97.68
78490;DHT22;67776;52.012;4.736;2023-12-04T00:45:56;1.01;97.73
78490;DHT22;67776;52.012;4.736;2023-12-04T00:48:22;1.01;97.77
78490;DHT22;67776;52.012;4.736;2023-12-04T00:50:47;1.04;97.44
78490;DHT22;67776;52.012;4.736;2023-12-04T00:53:13;1.04;97.19
78490;DHT22;67776;52.012;4.736;2023-12-04T00:55:38;1.04;97.37
78490;DHT22;67776;52.012;4.736;2023-12-04T00:58:04;1.05;96.90
78490;DHT22;67776;52.012;4.736;2023-12-04T01:00:29;1.09;96.66
78490;DHT22;67776;52.012;4.736;2023-12-04T01:02:54;1.11;96.53
78490;DHT22;67776;52.012;4.736;2023-12-04T01:05:20;1.09;96.51
78490;DHT22;67776;52.012;4.736;2023-12-04T01:07:45;1.07;96.85
78490;DHT22;67776;52.012;4.736;2023-12-04T01:10:10;1.05;97.00
78490;DHT22;67776;52.012;4.736;2023-12-04T01:12:36;1.05;96.61
78490;DHT22;67776;52.012;4.736;2023-12-04T01:15:01;1.09;96.27
78490;DHT22;67776;52.012;4.736;2023-12-04T01:17:27;1.11;96.24
78490;DHT22;67776;52.012;4.736;2023-12-04T01:19:52;1.11;96.26
78490;DHT22;67776;52.012;4.736;2023-12-04T01:22:17;1.11;96.65
78490;DHT22;67776;52.012;4.736;2023-12-04T01:24:43;1.14;96.06
78490;DHT22;67776;52.012;4.736;2023-12-04T01:27:08;1.15;95.98
78490;DHT22;67776;52.012;4.736;2023-12-04T01:29:33;1.14;95.48
78490;DHT22;67776;52.012;4.736;2023-12-04T01:31:59;1.15;95.76
78490;DHT22;67776;52.012;4.736;2023-12-04T01:34:24;1.17;95.66
78490;DHT22;67776;52.012;4.736;2023-12-04T01:36:50;1.17;96.07
78490;DHT22;67776;52.012;4.736;2023-12-04T01:39:15;1.17;95.70
78490;DHT22;67776;52.012;4.736;2023-12-04T01:41:40;1.18;95.60
78490;DHT22;67776;52.012;4.736;2023-12-04T01:44:05;1.18;96.07
78490;DHT22;67776;52.012;4.736;2023-12-04T01:46:31;1.18;95.97
78490;DHT22;67776;52.012;4.736;2023-12-04T01:48:58;1.17;95.94
78490;DHT22;67776;52.012;4.736;2023-12-04T01:51:24;1.18;95.71
78490;DHT22;67776;52.012;4.736;2023-12-04T01:53:54;1.21;95.53
78490;DHT22;67776;52.012;4.736;2023-12-04T01:56:20;1.17;96.07
78490;DHT22;67776;52.012;4.736;2023-12-04T01:58:46;1.18;95.94
78490;DHT22;67776;52.012;4.736;2023-12-04T02:01:11;1.18;95.48
78490;DHT22;67776;52.012;4.736;2023-12-04T02:03:37;1.21;95.29
78490;DHT22;67776;52.012;4.736;2023-12-04T02:06:03;1.20;95.17
78490;DHT22;67776;52.012;4.736;2023-12-04T02:08:29;1.25;94.64
78490;DHT22;67776;52.012;4.736;2023-12-04T02:10:55;1.25;94.54
78490;DHT22;67776;52.012;4.736;2023-12-04T02:13:21;1.27;94.35
78490;DHT22;67776;52.012;4.736;2023-12-04T02:15:49;1.27;94.66
78490;DHT22;67776;52.012;4.736;2023-12-04T02:18:17;1.27;94.12
78490;DHT22;67776;52.012;4.736;2023-12-04T02:20:43;1.25;94.42
78490;DHT22;67776;52.012;4.736;2023-12-04T02:23:08;1.25;94.75
78490;DHT22;67776;52.012;4.736;2023-12-04T02:25:33;1.27;94.30
78490;DHT22;67776;52.012;4.736;2023-12-04T02:28:01;1.27;94.18
78490;DHT22;67776;52.012;4.736;2023-12-04T02:30:29;1.28;94.24
78490;DHT22;67776;52.012;4.736;2023-12-04T02:32:57;1.24;94.39
78490;DHT22;67776;52.012;4.736;2023-12-04T02:35:25;1.25;94.12
78490;DHT22;67776;52.012;4.736;2023-12-04T02:37:53;1.27;94.07
78490;DHT22;67776;52.012;4.736;2023-12-04T02:40:19;1.25;94.14
78490;DHT22;67776;52.012;4.736;2023-12-04T02:42:44;1.22;94.50
78490;DHT22;67776;52.012;4.736;2023-12-04T02:45:10;1.22;94.45
78490;DHT22;67776;52.012;4.736;2023-12-04T02:47:35;1.25;94.00
78490;DHT22;67776;52.012;4.736;2023-12-04T02:50:00;1.27;93.68
78490;DHT22;67776;52.012;4.736;2023-12-04T02:52:26;1.24;93.73
78490;DHT22;67776;52.012;4.736;2023-12-04T02:54:51;1.27;93.38
78490;DHT22;67776;52.012;4.736;2023-12-04T02:57:16;1.25;93.81
78490;DHT22;67776;52.012;4.736;2023-12-04T02:59:42;1.28;93.34
78490;DHT22;67776;52.012;4.736;2023-12-04T03:02:07;1.21;94.56
78490;DHT22;67776;52.012;4.736;2023-12-04T03:04:34;1.22;93.56
78490;DHT22;67776;52.012;4.736;2023-12-04T03:06:59;1.21;93.97
78490;DHT22;67776;52.012;4.736;2023-12-04T03:09:25;1.22;93.78
78490;DHT22;67776;52.012;4.736;2023-12-04T03:11:50;1.22;93.42
78490;DHT22;67776;52.012;4.736;2023-12-04T03:14:15;1.21;93.31
78490;DHT22;67776;52.012;4.736;2023-12-04T03:16:41;1.28;92.64
78490;DHT22;67776;52.012;4.736;2023-12-04T03:19:06;1.27;92.37
78490;DHT22;67776;52.012;4.736;2023-12-04T03:21:31;1.28;92.49
78490;DHT22;67776;52.012;4.736;2023-12-04T03:23:57;1.29;92.53
78490;DHT22;67776;52.012;4.736;2023-12-04T03:26:22;1.29;92.57
78490;DHT22;67776;52.012;4.736;2023-12-04T03:28:47;1.27;92.21
78490;DHT22;67776;52.012;4.736;2023-12-04T03:31:13;1.31;92.32
78490;DHT22;67776;52.012;4.736;2023-12-04T03:33:38;1.25;92.07
78490;DHT22;67776;52.012;4.736;2023-12-04T03:36:04;1.28;92.00
78490;DHT22;67776;52.012;4.736;2023-12-04T03:38:29;1.31;91.77
78490;DHT22;67776;52.012;4.736;2023-12-04T03:40:55;1.27;92.46
78490;DHT22;67776;52.012;4.736;2023-12-04T03:43:20;1.27;91.48
78490;DHT22;67776;52.012;4.736;2023-12-04T03:45:45;1.25;91.78
78490;DHT22;67776;52.012;4.736;2023-12-04T03:48:11;1.25;92.33
78490;DHT22;67776;52.012;4.736;2023-12-04T03:50:36;1.25;91.84
78490;DHT22;67776;52.012;4.736;2023-12-04T03:53:02;1.25;92.01
78490;DHT22;67776;52.012;4.736;2023-12-04T03:55:27;1.27;91.71
78490;DHT22;67776;52.012;4.736;2023-12-04T03:57:53;1.24;91.78
78490;DHT22;67776;52.012;4.736;2023-12-04T04:00:19;1.25;92.23
78490;DHT22;67776;52.012;4.736;2023-12-04T04:02:44;1.24;92.03
78490;DHT22;67776;52.012;4.736;2023-12-04T04:05:10;1.20;92.20
78490;DHT22;67776;52.012;4.736;2023-12-04T04:07:35;1.22;92.13
78490;DHT22;67776;52.012;4.736;2023-12-04T04:10:01;1.22;92.04
78490;DHT22;67776;52.012;4.736;2023-12-04T04:12:27;1.25;91.58
78490;DHT22;67776;52.012;4.736;2023-12-04T04:14:52;1.25;91.82
78490;DHT22;67776;52.012;4.736;2023-12-04T04:17:18;1.28;91.17
78490;DHT22;67776;52.012;4.736;2023-12-04T04:19:43;1.31;90.70
78490;DHT22;67776;52.012;4.736;2023-12-04T04:22:08;1.29;90.92
78490;DHT22;67776;52.012;4.736;2023-12-04T04:24:34;1.34;90.75
78490;DHT22;67776;52.012;4.736;2023-12-04T04:26:59;1.29;91.00
78490;DHT22;67776;52.012;4.736;2023-12-04T04:29:24;1.29;91.02
78490;DHT22;67776;52.012;4.736;2023-12-04T04:31:50;1.31;91.08
78490;DHT22;67776;52.012;4.736;2023-12-04T04:34:15;1.28;91.28
78490;DHT22;67776;52.012;4.736;2023-12-04T04:36:42;1.27;91.22
78490;DHT22;67776;52.012;4.736;2023-12-04T04:39:07;1.29;91.06
78490;DHT22;67776;52.012;4.736;2023-12-04T04:41:33;1.28;91.08
78490;DHT22;67776;52.012;4.736;2023-12-04T04:43:58;1.27;91.69
78490;DHT22;67776;52.012;4.736;2023-12-04T04:46:23;1.29;91.18
78490;DHT22;67776;52.012;4.736;2023-12-04T04:48:51;1.28;91.15
78490;DHT22;67776;52.012;4.736;2023-12-04T04:51:17;1.29;90.73
78490;DHT22;67776;52.012;4.736;2023-12-04T04:53:42;1.27;90.96
78490;DHT22;67776;52.012;4.736;2023-12-04T04:56:08;1.35;90.60
78490;DHT22;67776;52.012;4.736;2023-12-04T04:58:33;1.34;90.47
78490;DHT22;67776;52.012;4.736;2023-12-04T05:00:59;1.32;90.67
78490;DHT22;67776;52.012;4.736;2023-12-04T05:03:24;1.32;90.20
78490;DHT22;67776;52.012;4.736;2023-12-04T05:05:49;1.32;90.63
78490;DHT22;67776;52.012;4.736;2023-12-04T05:08:15;1.34;90.36
78490;DHT22;67776;52.012;4.736;2023-12-04T05:10:40;1.32;90.47
78490;DHT22;67776;52.012;4.736;2023-12-04T05:13:06;1.36;90.09
78490;DHT22;67776;52.012;4.736;2023-12-04T05:15:32;1.35;90.16
78490;DHT22;67776;52.012;4.736;2023-12-04T05:17:57;1.38;90.57
78490;DHT22;67776;52.012;4.736;2023-12-04T05:20:22;1.42;89.98
78490;DHT22;67776;52.012;4.736;2023-12-04T05:22:49;1.35;90.57
78490;DHT22;67776;52.012;4.736;2023-12-04T05:25:14;1.36;91.04
78490;DHT22;67776;52.012;4.736;2023-12-04T05:27:39;1.39;91.00
78490;DHT22;67776;52.012;4.736;2023-12-04T05:30:05;1.36;91.64
78490;DHT22;67776;52.012;4.736;2023-12-04T05:32:31;1.43;90.12
78490;DHT22;67776;52.012;4.736;2023-12-04T05:34:56;1.48;90.28
78490;DHT22;67776;52.012;4.736;2023-12-04T05:37:21;1.48;90.15
78490;DHT22;67776;52.012;4.736;2023-12-04T05:39:47;1.48;90.71
78490;DHT22;67776;52.012;4.736;2023-12-04T05:42:12;1.52;90.41
78490;DHT22;67776;52.012;4.736;2023-12-04T05:44:37;1.50;89.61
78490;DHT22;67776;52.012;4.736;2023-12-04T05:47:03;1.50;90.04
78490;DHT22;67776;52.012;4.736;2023-12-04T05:49:28;1.53;89.81
78490;DHT22;67776;52.012;4.736;2023-12-04T05:51:55;1.53;90.75
78490;DHT22;67776;52.012;4.736;2023-12-04T05:54:21;1.52;90.69
78490;DHT22;67776;52.012;4.736;2023-12-04T05:56:46;1.50;91.51
78490;DHT22;67776;52.012;4.736;2023-12-04T05:59:11;1.50;91.45
78490;DHT22;67776;52.012;4.736;2023-12-04T06:01:37;1.55;90.85
78490;DHT22;67776;52.012;4.736;2023-12-04T06:04:03;1.53;90.95
78490;DHT22;67776;52.012;4.736;2023-12-04T06:06:28;1.53;90.69
78490;DHT22;67776;52.012;4.736;2023-12-04T06:08:54;1.55;90.89
78490;DHT22;67776;52.012;4.736;2023-12-04T06:11:19;1.56;90.38
78490;DHT22;67776;52.012;4.736;2023-12-04T06:13:44;1.60;89.99
78490;DHT22;67776;52.012;4.736;2023-12-04T06:16:10;1.62;90.11
78490;DHT22;67776;52.012;4.736;2023-12-04T06:18:35;1.67;89.54
78490;DHT22;67776;52.012;4.736;2023-12-04T06:21:00;1.66;89.92
78490;DHT22;67776;52.012;4.736;2023-12-04T06:23:26;1.66;90.06
78490;DHT22;67776;52.012;4.736;2023-12-04T06:25:51;1.67;90.05
78490;DHT22;67776;52.012;4.736;2023-12-04T06:28:17;1.63;90.44
78490;DHT22;67776;52.012;4.736;2023-12-04T06:30:43;1.63;90.45
78490;DHT22;67776;52.012;4.736;2023-12-04T06:33:08;1.60;90.44
78490;DHT22;67776;52.012;4.736;2023-12-04T06:35:34;1.59;91.17
78490;DHT22;67776;52.012;4.736;2023-12-04T06:38:07;1.59;91.29
78490;DHT22;67776;52.012;4.736;2023-12-04T06:40:33;1.58;91.20
78490;DHT22;67776;52.012;4.736;2023-12-04T06:42:59;1.58;90.71
78490;DHT22;67776;52.012;4.736;2023-12-04T06:45:25;1.64;90.69
78490;DHT22;67776;52.012;4.736;2023-12-04T06:47:52;1.62;90.65
78490;DHT22;67776;52.012;4.736;2023-12-04T06:50:18;1.64;90.67
78490;DHT22;67776;52.012;4.736;2023-12-04T06:52:44;1.62;91.06
78490;DHT22;67776;52.012;4.736;2023-12-04T06:55:09;1.58;91.27
78490;DHT22;67776;52.012;4.736;2023-12-04T06:57:34;1.62;91.47
78490;DHT22;67776;52.012;4.736;2023-12-04T07:00:00;1.63;90.87
78490;DHT22;67776;52.012;4.736;2023-12-04T07:02:25;1.63;91.14
78490;DHT22;67776;52.012;4.736;2023-12-04T07:04:51;1.63;90.85
78490;DHT22;67776;52.012;4.736;2023-12-04T07:07:16;1.70;89.99
78490;DHT22;67776;52.012;4.736;2023-12-04T07:09:41;1.67;90.30
78490;DHT22;67776;52.012;4.736;2023-12-04T07:12:07;1.71;90.14
78490;DHT22;67776;52.012;4.736;2023-12-04T07:14:32;1.71;90.18
78490;DHT22;67776;52.012;4.736;2023-12-04T07:16:58;1.71;90.11
78490;DHT22;67776;52.012;4.736;2023-12-04T07:19:25;1.76;89.21
78490;DHT22;67776;52.012;4.736;2023-12-04T07:21:51;1.77;89.33
78490;DHT22;67776;52.012;4.736;2023-12-04T07:24:17;1.81;89.10
78490;DHT22;67776;52.012;4.736;2023-12-04T07:26:42;1.84;88.64
78490;DHT22;67776;52.012;4.736;2023-12-04T07:29:07;1.84;88.96
78490;DHT22;67776;52.012;4.736;2023-12-04T07:31:33;1.84;88.69
78490;DHT22;67776;52.012;4.736;2023-12-04T07:33:58;1.81;89.29
78490;DHT22;67776;52.012;4.736;2023-12-04T07:36:26;1.78;89.52
78490;DHT22;67776;52.012;4.736;2023-12-04T07:38:52;1.77;89.68
78490;DHT22;67776;52.012;4.736;2023-12-04T07:41:19;1.77;89.77
78490;DHT22;67776;52.012;4.736;2023-12-04T07:43:45;1.74;89.86
78490;DHT22;67776;52.012;4.736;2023-12-04T07:46:10;1.74;89.95
78490;DHT22;67776;52.012;4.736;2023-12-04T07:48:36;1.71;91.05
78490;DHT22;67776;52.012;4.736;2023-12-04T07:51:02;1.71;90.34
78490;DHT22;67776;52.012;4.736;2023-12-04T07:53:27;1.69;90.25
78490;DHT22;67776;52.012;4.736;2023-12-04T07:55:53;1.70;90.01
78490;DHT22;67776;52.012;4.736;2023-12-04T07:58:18;1.69;90.28
78490;DHT22;67776;52.012;4.736;2023-12-04T08:00:44;1.73;89.73
78490;DHT22;67776;52.012;4.736;2023-12-04T08:03:09;1.70;90.33
78490;DHT22;67776;52.012;4.736;2023-12-04T08:05:35;1.71;90.09
78490;DHT22;67776;52.012;4.736;2023-12-04T08:08:00;1.73;90.52
78490;DHT22;67776;52.012;4.736;2023-12-04T08:10:25;1.73;90.53
78490;DHT22;67776;52.012;4.736;2023-12-04T08:12:51;1.73;89.84
78490;DHT22;67776;52.012;4.736;2023-12-04T08:15:16;1.74;89.19
78490;DHT22;67776;52.012;4.736;2023-12-04T08:17:42;1.76;89.44
78490;DHT22;67776;52.012;4.736;2023-12-04T08:20:07;1.80;89.16
78490;DHT22;67776;52.012;4.736;2023-12-04T08:22:37;1.81;88.56
78490;DHT22;67776;52.012;4.736;2023-12-04T08:25:02;1.84;88.66
78490;DHT22;67776;52.012;4.736;2023-12-04T08:27:28;1.87;88.06
78490;DHT22;67776;52.012;4.736;2023-12-04T08:29:53;1.88;87.82
78490;DHT22;67776;52.012;4.736;2023-12-04T08:32:18;1.90;87.68
78490;DHT22;67776;52.012;4.736;2023-12-04T08:34:44;1.91;87.87
78490;DHT22;67776;52.012;4.736;2023-12-04T08:37:10;1.91;88.05
78490;DHT22;67776;52.012;4.736;2023-12-04T08:39:35;1.93;87.98
78490;DHT22;67776;52.012;4.736;2023-12-04T08:42:00;1.98;86.39
78490;DHT22;67776;52.012;4.736;2023-12-04T08:44:26;2.00;86.05
78490;DHT22;67776;52.012;4.736;2023-12-04T08:46:51;2.00;86.17
78490;DHT22;67776;52.012;4.736;2023-12-04T08:49:16;2.01;86.33
78490;DHT22;67776;52.012;4.736;2023-12-04T08:51:42;2.03;86.05
78490;DHT22;67776;52.012;4.736;2023-12-04T08:54:08;2.03;85.73
78490;DHT22;67776;52.012;4.736;2023-12-04T08:56:34;2.01;85.90
78490;DHT22;67776;52.012;4.736;2023-12-04T08:58:59;2.03;85.76
78490;DHT22;67776;52.012;4.736;2023-12-04T09:01:24;1.98;85.80
78490;DHT22;67776;52.012;4.736;2023-12-04T09:03:52;2.00;86.50
78490;DHT22;67776;52.012;4.736;2023-12-04T09:06:17;2.00;85.90
78490;DHT22;67776;52.012;4.736;2023-12-04T09:08:42;2.00;85.63
78490;DHT22;67776;52.012;4.736;2023-12-04T09:11:08;1.98;85.64
78490;DHT22;67776;52.012;4.736;2023-12-04T09:13:33;2.03;85.43
78490;DHT22;67776;52.012;4.736;2023-12-04T09:15:59;2.03;85.06
78490;DHT22;67776;52.012;4.736;2023-12-04T09:18:25;2.03;85.55
78490;DHT22;67776;52.012;4.736;2023-12-04T09:20:50;2.04;85.26
78490;DHT22;67776;52.012;4.736;2023-12-04T09:23:15;2.07;84.98
78490;DHT22;67776;52.012;4.736;2023-12-04T09:25:41;2.11;84.89
78490;DHT22;67776;52.012;4.736;2023-12-04T09:28:06;2.08;84.81
78490;DHT22;67776;52.012;4.736;2023-12-04T09:30:33;2.10;84.50
78490;DHT22;67776;52.012;4.736;2023-12-04T09:32:58;2.10;84.55
78490;DHT22;67776;52.012;4.736;2023-12-04T09:35:24;2.15;84.65
78490;DHT22;67776;52.012;4.736;2023-12-04T09:37:49;2.14;84.44
78490;DHT22;67776;52.012;4.736;2023-12-04T09:40:16;2.15;84.59
78490;DHT22;67776;52.012;4.736;2023-12-04T09:42:41;2.17;83.83
78490;DHT22;67776;52.012;4.736;2023-12-04T09:45:08;2.20;84.33
78490;DHT22;67776;52.012;4.736;2023-12-04T09:47:34;2.17;84.93
78490;DHT22;67776;52.012;4.736;2023-12-04T09:49:59;2.20;84.16
78490;DHT22;67776;52.012;4.736;2023-12-04T09:52:27;2.22;83.43
78490;DHT22;67776;52.012;4.736;2023-12-04T09:54:52;2.22;84.10
78490;DHT22;67776;52.012;4.736;2023-12-04T09:57:18;2.22;84.07
78490;DHT22;67776;52.012;4.736;2023-12-04T09:59:44;2.26;83.56
78490;DHT22;67776;52.012;4.736;2023-12-04T10:02:10;2.26;83.89
78490;DHT22;67776;52.012;4.736;2023-12-04T10:04:36;2.28;84.19
78490;DHT22;67776;52.012;4.736;2023-12-04T10:07:02;2.29;83.99
78490;DHT22;67776;52.012;4.736;2023-12-04T10:09:27;2.29;83.83
78490;DHT22;67776;52.012;4.736;2023-12-04T10:11:55;2.32;83.31
78490;DHT22;67776;52.012;4.736;2023-12-04T10:14:21;2.36;82.85
78490;DHT22;67776;52.012;4.736;2023-12-04T10:16:47;2.38;83.69
78490;DHT22;67776;52.012;4.736;2023-12-04T10:21:47;2.43;84.46
78490;DHT22;67776;52.012;4.736;2023-12-04T10:24:27;2.45;84.34
78490;DHT22;67776;52.012;4.736;2023-12-04T10:26:53;2.48;83.98
78490;DHT22;67776;52.012;4.736;2023-12-04T10:29:18;2.45;84.51
78490;DHT22;67776;52.012;4.736;2023-12-04T10:31:43;2.49;84.32
78490;DHT22;67776;52.012;4.736;2023-12-04T10:34:09;2.45;84.17
78490;DHT22;67776;52.012;4.736;2023-12-04T10:36:37;2.48;83.73
78490;DHT22;67776;52.012;4.736;2023-12-04T10:39:03;2.49;84.16
78490;DHT22;67776;52.012;4.736;2023-12-04T10:41:32;2.48;84.34
78490;DHT22;67776;52.012;4.736;2023-12-04T10:43:57;2.49;84.01
78490;DHT22;67776;52.012;4.736;2023-12-04T10:46:27;2.48;83.54
78490;DHT22;67776;52.012;4.736;2023-12-04T10:48:53;2.52;84.00
78490;DHT22;67776;52.012;4.736;2023-12-04T10:51:19;2.48;83.77
78490;DHT22;67776;52.012;4.736;2023-12-04T10:53:47;2.49;83.53
78490;DHT22;67776;52.012;4.736;2023-12-04T10:56:26;2.50;83.52
78490;DHT22;67776;52.012;4.736;2023-12-04T10:58:54;2.54;83.62
78490;DHT22;67776;52.012;4.736;2023-12-04T11:01:22;2.53;82.97
78490;DHT22;67776;52.012;4.736;2023-12-04T11:03:52;2.59;83.72
78490;DHT22;67776;52.012;4.736;2023-12-04T11:06:20;2.59;83.04
78490;DHT22;67776;52.012;4.736;2023-12-04T11:08:48;2.64;82.99
78490;DHT22;67776;52.012;4.736;2023-12-04T11:11:15;2.66;82.59
78490;DHT22;67776;52.012;4.736;2023-12-04T11:13:48;2.70;83.30
78490;DHT22;67776;52.012;4.736;2023-12-04T11:18:44;2.77;83.38
78490;DHT22;67776;52.012;4.736;2023-12-04T11:21:13;2.76;83.04
78490;DHT22;67776;52.012;4.736;2023-12-04T11:23:39;2.79;82.54
78490;DHT22;67776;52.012;4.736;2023-12-04T11:26:06;2.86;83.21
78490;DHT22;67776;52.012;4.736;2023-12-04T11:28:33;2.81;82.70
78490;DHT22;67776;52.012;4.736;2023-12-04T11:30:59;2.83;83.39
78490;DHT22;67776;52.012;4.736;2023-12-04T11:33:26;2.80;83.86
78490;DHT22;67776;52.012;4.736;2023-12-04T11:35:52;2.80;83.29
78490;DHT22;67776;52.012;4.736;2023-12-04T11:38:17;2.81;83.99
78490;DHT22;67776;52.012;4.736;2023-12-04T11:40:43;2.84;84.14
78490;DHT22;67776;52.012;4.736;2023-12-04T11:43:25;2.81;83.66
78490;DHT22;67776;52.012;4.736;2023-12-04T11:45:51;2.81;83.72
78490;DHT22;67776;52.012;4.736;2023-12-04T11:48:16;2.83;83.90
78490;DHT22;67776;52.012;4.736;2023-12-04T11:50:44;2.84;83.92
78490;DHT22;67776;52.012;4.736;2023-12-04T11:53:10;2.84;83.73
78490;DHT22;67776;52.012;4.736;2023-12-04T11:55:40;2.84;84.16
78490;DHT22;67776;52.012;4.736;2023-12-04T11:58:09;2.84;84.38
78490;DHT22;67776;52.012;4.736;2023-12-04T12:00:35;2.88;84.73
78490;DHT22;67776;52.012;4.736;2023-12-04T12:03:03;2.83;85.44
78490;DHT22;67776;52.012;4.736;2023-12-04T12:05:32;2.84;85.33
78490;DHT22;67776;52.012;4.736;2023-12-04T12:08:00;2.80;85.49
78490;DHT22;67776;52.012;4.736;2023-12-04T12:10:27;2.80;85.32
78490;DHT22;67776;52.012;4.736;2023-12-04T12:12:52;2.81;85.78
78490;DHT22;67776;52.012;4.736;2023-12-04T12:15:18;2.75;87.32
78490;DHT22;67776;52.012;4.736;2023-12-04T12:17:43;2.72;87.46
78490;DHT22;67776;52.012;4.736;2023-12-04T12:20:10;2.72;87.53
78490;DHT22;67776;52.012;4.736;2023-12-04T12:22:37;2.73;87.88
78490;DHT22;67776;52.012;4.736;2023-12-04T12:25:10;2.69;88.51
78490;DHT22;67776;52.012;4.736;2023-12-04T12:27:36;2.67;87.86
78490;DHT22;67776;52.012;4.736;2023-12-04T12:30:03;2.66;89.38
78490;DHT22;67776;52.012;4.736;2023-12-04T12:32:30;2.64;89.61
78490;DHT22;67776;52.012;4.736;2023-12-04T12:34:56;2.67;87.09
78490;DHT22;67776;52.012;4.736;2023-12-04T12:37:21;2.64;88.13
78490;DHT22;67776;52.012;4.736;2023-12-04T12:39:47;2.69;87.31
78490;DHT22;67776;52.012;4.736;2023-12-04T12:42:21;2.69;87.80
78490;DHT22;67776;52.012;4.736;2023-12-04T12:44:46;2.69;88.50
78490;DHT22;67776;52.012;4.736;2023-12-04T12:47:14;2.69;88.09
78490;DHT22;67776;52.012;4.736;2023-12-04T12:49:40;2.72;89.85
78490;DHT22;67776;52.012;4.736;2023-12-04T12:52:05;2.69;87.70
78490;DHT22;67776;52.012;4.736;2023-12-04T12:54:33;2.73;88.04
78490;DHT22;67776;52.012;4.736;2023-12-04T12:57:01;2.70;87.70
78490;DHT22;67776;52.012;4.736;2023-12-04T12:59:27;2.70;88.42
78490;DHT22;67776;52.012;4.736;2023-12-04T13:01:52;2.73;87.93
78490;DHT22;67776;52.012;4.736;2023-12-04T13:04:18;2.75;88.14
78490;DHT22;67776;52.012;4.736;2023-12-04T13:06:44;2.70;87.86
78490;DHT22;67776;52.012;4.736;2023-12-04T13:09:11;2.67;87.74
78490;DHT22;67776;52.012;4.736;2023-12-04T13:11:46;2.67;87.68
78490;DHT22;67776;52.012;4.736;2023-12-04T13:14:11;2.70;88.37
78490;DHT22;67776;52.012;4.736;2023-12-04T13:16:37;2.69;87.76
78490;DHT22;67776;52.012;4.736;2023-12-04T13:19:02;2.70;88.31
78490;DHT22;67776;52.012;4.736;2023-12-04T13:21:27;2.72;88.33
78490;DHT22;67776;52.012;4.736;2023-12-04T13:23:53;2.73;88.00
78490;DHT22;67776;52.012;4.736;2023-12-04T13:26:19;2.75;87.91
78490;DHT22;67776;52.012;4.736;2023-12-04T13:28:45;2.79;88.25
78490;DHT22;67776;52.012;4.736;2023-12-04T13:31:10;2.84;88.67
78490;DHT22;67776;52.012;4.736;2023-12-04T13:33:36;2.88;88.24
78490;DHT22;67776;52.012;4.736;2023-12-04T13:36:02;2.90;88.16
78490;DHT22;67776;52.012;4.736;2023-12-04T13:38:27;2.93;88.88
78490;DHT22;67776;52.012;4.736;2023-12-04T13:40:53;2.91;88.79
78490;DHT22;67776;52.012;4.736;2023-12-04T13:43:27;2.90;88.41
78490;DHT22;67776;52.012;4.736;2023-12-04T13:46:11;2.90;88.67
78490;DHT22;67776;52.012;4.736;2023-12-04T13:48:37;2.90;88.70
78490;DHT22;67776;52.012;4.736;2023-12-04T13:51:06;2.86;88.87
78490;DHT22;67776;52.012;4.736;2023-12-04T13:53:32;2.88;89.42
78490;DHT22;67776;52.012;4.736;2023-12-04T13:55:58;2.90;89.67
78490;DHT22;67776;52.012;4.736;2023-12-04T13:58:26;2.84;89.87
78490;DHT22;67776;52.012;4.736;2023-12-04T14:01:07;2.80;90.45
78490;DHT22;67776;52.012;4.736;2023-12-04T14:03:47;2.77;90.19
78490;DHT22;67776;52.012;4.736;2023-12-04T14:06:13;2.73;89.99
78490;DHT22;67776;52.012;4.736;2023-12-04T14:08:39;2.66;90.19
78490;DHT22;67776;52.012;4.736;2023-12-04T14:11:05;2.63;89.96
78490;DHT22;67776;52.012;4.736;2023-12-04T14:13:32;2.59;90.79
78490;DHT22;67776;52.012;4.736;2023-12-04T14:15:57;2.59;90.59
78490;DHT22;67776;52.012;4.736;2023-12-04T14:18:23;2.59;90.96
78490;DHT22;67776;52.012;4.736;2023-12-04T14:20:48;2.57;91.02
78490;DHT22;67776;52.012;4.736;2023-12-04T14:23:14;2.56;91.46
78490;DHT22;67776;52.012;4.736;2023-12-04T14:25:40;2.53;91.76
78490;DHT22;67776;52.012;4.736;2023-12-04T14:28:05;2.54;91.80
78490;DHT22;67776;52.012;4.736;2023-12-04T14:30:32;2.46;92.87
78490;DHT22;67776;52.012;4.736;2023-12-04T14:32:57;2.41;93.04
78490;DHT22;67776;52.012;4.736;2023-12-04T14:35:23;2.41;93.05
78490;DHT22;67776;52.012;4.736;2023-12-04T14:37:48;2.36;93.64
78490;DHT22;67776;52.012;4.736;2023-12-04T14:40:15;2.38;93.86
78490;DHT22;67776;52.012;4.736;2023-12-04T14:42:40;2.36;93.85
78490;DHT22;67776;52.012;4.736;2023-12-04T14:45:06;2.33;94.85
78490;DHT22;67776;52.012;4.736;2023-12-04T14:47:31;2.35;94.30
78490;DHT22;67776;52.012;4.736;2023-12-04T14:49:57;2.33;94.57
78490;DHT22;67776;52.012;4.736;2023-12-04T14:52:22;2.29;94.64
78490;DHT22;67776;52.012;4.736;2023-12-04T14:54:48;2.28;94.87
78490;DHT22;67776;52.012;4.736;2023-12-04T14:57:26;2.31;94.53
78490;DHT22;67776;52.012;4.736;2023-12-04T15:00:12;2.31;95.07
78490;DHT22;67776;52.012;4.736;2023-12-04T15:02:56;2.31;95.33
78490;DHT22;67776;52.012;4.736;2023-12-04T15:05:59;2.29;95.98
78490;DHT22;67776;52.012;4.736;2023-12-04T15:08:48;2.25;95.91
78490;DHT22;67776;52.012;4.736;2023-12-04T15:11:32;2.22;96.12
78490;DHT22;67776;52.012;4.736;2023-12-04T15:14:12;2.24;96.40
78490;DHT22;67776;52.012;4.736;2023-12-04T15:17:01;2.20;96.78
78490;DHT22;67776;52.012;4.736;2023-12-04T15:19:47;2.20;97.11
78490;DHT22;67776;52.012;4.736;2023-12-04T15:22:35;2.14;97.28
78490;DHT22;67776;52.012;4.736;2023-12-04T15:25:02;2.12;97.06
78490;DHT22;67776;52.012;4.736;2023-12-04T15:27:27;2.12;97.08
78490;DHT22;67776;52.012;4.736;2023-12-04T15:29:53;2.10;97.16
78490;DHT22;67776;52.012;4.736;2023-12-04T15:32:18;2.10;97.37
78490;DHT22;67776;52.012;4.736;2023-12-04T15:34:43;2.11;97.26
78490;DHT22;67776;52.012;4.736;2023-12-04T15:37:09;2.10;97.16
78490;DHT22;67776;52.012;4.736;2023-12-04T15:39:34;2.08;97.43
78490;DHT22;67776;52.012;4.736;2023-12-04T15:42:00;2.05;97.71
78490;DHT22;67776;52.012;4.736;2023-12-04T15:44:25;2.07;97.47
78490;DHT22;67776;52.012;4.736;2023-12-04T15:46:51;2.05;97.75